Time;durP1;ratioP1;P1;durP2;ratioP2;P2;SDS_P1;SDS_P2;PMS_P1;PMS_P2;Temp;Humidity;BMP_temperature;BMP_pressure;BME280_temperature;BME280_humidity;BME280_pressure;Samples;Min_cycle;Max_cycle;Signal;HPM_P1;HPM_P2
2022/06/18 00:01:42;;;;;;;5.33;3.30;;;;;;;16.33;84.10;100426.98;1660889;85;21052;-67
2022/06/18 00:04:17;;;;;;;5.12;3.80;;;;;;;16.36;84.40;100432.05;1683432;85;21059;-67
2022/06/18 00:06:50;;;;;;;5.67;4.20;;;;;;;16.38;84.50;100425.73;1683586;85;21003;-67
2022/06/18 00:09:24;;;;;;;4.95;4.00;;;;;;;16.36;84.57;100429.28;1683700;85;21075;-67
2022/06/18 00:14:48;;;;;;;3.55;3.25;;;;;;;16.33;84.66;100423.37;1683301;85;21059;-67
2022/06/18 00:17:18;;;;;;;4.92;3.60;;;;;;;16.35;84.26;100412.92;1683311;85;21051;-67
2022/06/18 00:19:49;;;;;;;6.05;3.70;;;;;;;16.36;84.13;100420.14;1683354;85;21059;-66
2022/06/18 00:22:20;;;;;;;5.28;3.83;;;;;;;16.34;84.41;100416.23;1683292;85;21075;-65
2022/06/18 00:24:49;;;;;;;4.53;3.30;;;;;;;16.37;84.65;100412.15;1683492;85;21119;-65
2022/06/18 00:27:20;;;;;;;5.60;3.80;;;;;;;16.36;84.32;100415.98;1628157;87;21611;-64
2022/06/18 00:29:51;;;;;;;4.85;3.80;;;;;;;16.36;84.37;100413.22;1682056;85;21122;-64
2022/06/18 00:32:20;;;;;;;5.30;3.62;;;;;;;16.35;84.69;100414.30;1684406;85;21039;-66
2022/06/18 00:34:51;;;;;;;6.62;3.77;;;;;;;16.33;84.84;100406.78;1684717;85;21038;-65
2022/06/18 00:37:20;;;;;;;4.33;3.33;;;;;;;16.36;84.64;100404.93;1684546;85;21097;-65
2022/06/18 00:39:52;;;;;;;3.25;2.92;;;;;;;16.36;84.58;100408.54;1684663;85;21067;-65
2022/06/18 00:42:27;;;;;;;7.42;3.40;;;;;;;16.38;84.80;100402.77;1684698;85;21105;-66
2022/06/18 00:44:59;;;;;;;5.50;3.58;;;;;;;16.38;84.94;100408.30;1697795;83;21417;-65
2022/06/18 00:47:48;;;;;;;4.45;3.30;;;;;;;16.38;85.17;100413.83;1733708;83;20987;-64
2022/06/18 00:50:35;;;;;;;4.42;3.25;;;;;;;16.39;85.19;100414.14;1733410;83;21030;-66
2022/06/18 00:53:13;;;;;;;6.55;3.35;;;;;;;16.36;84.86;100415.45;1733655;83;20995;-66
2022/06/18 00:56:11;;;;;;;8.53;3.47;;;;;;;16.35;84.40;100401.86;1733509;82;21026;-66
2022/06/18 00:58:45;;;;;;;3.95;3.17;;;;;;;16.27;83.62;100402.20;1733433;82;21015;-66
2022/06/18 01:01:21;;;;;;;3.98;3.35;;;;;;;16.23;83.28;100406.48;1733555;83;21023;-64
2022/06/18 01:03:50;;;;;;;3.75;3.30;;;;;;;16.24;83.49;100404.02;1733464;82;20999;-65
2022/06/18 01:06:24;;;;;;;4.90;3.35;;;;;;;16.21;83.54;100407.25;1733714;83;20998;-65
2022/06/18 01:09:07;;;;;;;5.75;3.72;;;;;;;16.23;83.59;100410.63;1733425;82;21071;-64
2022/06/18 01:11:37;;;;;;;7.20;3.98;;;;;;;16.24;83.49;100408.16;1733468;82;21050;-66
2022/06/18 01:14:09;;;;;;;8.05;4.40;;;;;;;16.23;83.32;100406.48;1733433;82;21003;-64
2022/06/18 01:16:40;;;;;;;5.45;3.70;;;;;;;16.25;83.26;100409.31;1684863;85;21027;-64
2022/06/18 01:19:17;;;;;;;5.35;3.87;;;;;;;16.28;83.00;100410.25;1684562;85;21471;-63
2022/06/18 01:22:15;;;;;;;4.65;3.90;;;;;;;16.31;82.97;100407.55;1684764;85;21113;-63
2022/06/18 01:24:46;;;;;;;6.70;3.83;;;;;;;16.34;82.84;100408.47;1684842;85;21144;-64
2022/06/18 01:27:15;;;;;;;5.25;4.60;;;;;;;16.31;82.45;100407.02;1684625;85;21121;-64
2022/06/18 01:29:46;;;;;;;4.90;4.03;;;;;;;16.30;82.70;100413.63;1682754;85;21148;-63
2022/06/18 01:32:16;;;;;;;6.05;3.80;;;;;;;16.32;82.51;100412.02;1677681;85;21075;-65
2022/06/18 01:34:46;;;;;;;5.55;4.30;;;;;;;16.33;82.55;100407.63;1705608;83;20995;-66
2022/06/18 01:37:17;;;;;;;6.08;4.40;;;;;;;16.34;82.57;100403.78;1736459;82;21050;-65
2022/06/18 01:39:49;;;;;;;8.73;4.35;;;;;;;16.35;82.68;100401.86;1736297;82;21011;-64
2022/06/18 01:42:27;;;;;;;5.28;4.05;;;;;;;16.35;82.99;100406.85;1736328;83;20991;-66
2022/06/18 01:45:10;;;;;;;4.67;3.77;;;;;;;16.37;82.78;100409.38;1736370;83;21020;-64
2022/06/18 01:47:55;;;;;;;5.67;4.30;;;;;;;16.38;82.89;100398.62;1735644;83;20999;-64
2022/06/18 01:50:49;;;;;;;6.30;4.53;;;;;;;16.40;82.97;100400.08;1736401;83;21047;-66
2022/06/18 01:53:30;;;;;;;5.83;4.40;;;;;;;16.41;83.18;100402.30;1736113;83;20971;-65
2022/06/18 01:56:17;;;;;;;5.65;4.40;;;;;;;16.39;83.14;100393.40;1736339;83;21002;-65
2022/06/18 01:59:01;;;;;;;5.25;3.95;;;;;;;16.40;83.20;100400.08;1736427;82;21015;-66
2022/06/18 02:01:40;;;;;;;6.87;4.85;;;;;;;16.40;82.99;100391.78;1736323;82;21011;-64
2022/06/18 02:04:10;;;;;;;5.33;4.60;;;;;;;16.42;83.09;100392.39;1736586;83;21419;-64
2022/06/18 02:06:43;;;;;;;7.03;4.50;;;;;;;16.42;83.21;100392.39;1736166;83;21011;-64
2022/06/18 02:09:30;;;;;;;5.53;4.00;;;;;;;16.42;83.11;100386.01;1736275;82;20999;-63
2022/06/18 02:12:03;;;;;;;6.80;3.77;;;;;;;16.44;83.16;100382.47;1736587;82;21030;-65
2022/06/18 02:14:35;;;;;;;5.87;4.37;;;;;;;16.46;83.23;100381.69;1711746;83;20983;-65
2022/06/18 02:17:07;;;;;;;8.23;4.87;;;;;;;16.44;83.42;100377.78;1736293;83;21033;-64
2022/06/18 02:19:37;;;;;;;5.80;4.40;;;;;;;16.43;83.47;100380.78;1736485;83;21431;-65
2022/06/18 02:22:09;;;;;;;5.40;4.15;;;;;;;16.41;83.49;100380.17;1736231;83;21447;-68
2022/06/18 02:24:40;;;;;;;5.40;3.60;;;;;;;16.40;83.61;100384.86;1712431;83;21007;-65
2022/06/18 02:27:13;;;;;;;7.28;4.62;;;;;;;16.40;83.83;100386.25;1712185;83;21030;-64
2022/06/18 02:29:43;;;;;;;9.45;5.10;;;;;;;16.42;83.98;100391.54;1735858;82;21014;-65
2022/06/18 02:32:24;;;;;;;9.63;4.83;;;;;;;16.42;84.14;100388.77;1733314;83;21070;-65
2022/06/18 02:34:55;;;;;;;5.37;3.90;;;;;;;16.41;84.20;100395.39;1733459;83;21441;-65
2022/06/18 02:37:28;;;;;;;5.95;3.67;;;;;;;16.41;84.11;100386.55;1733431;83;21070;-64
2022/06/18 02:40:02;;;;;;;4.60;3.70;;;;;;;16.45;84.11;100388.30;1733540;83;21477;-64
2022/06/18 02:42:34;;;;;;;4.30;3.70;;;;;;;16.47;83.80;100392.52;1733361;83;21425;-63
2022/06/18 02:45:07;;;;;;;6.28;3.90;;;;;;;16.48;83.65;100398.35;1684691;85;21079;-64
2022/06/18 02:47:36;;;;;;;4.12;3.40;;;;;;;16.50;83.54;100395.34;1684569;85;21094;-64
2022/06/18 02:50:10;;;;;;;4.62;3.50;;;;;;;16.51;82.86;100398.42;1684737;85;21062;-63
2022/06/18 02:52:52;;;;;;;8.63;3.72;;;;;;;16.52;82.39;100390.42;1684087;85;21177;-64
2022/06/18 02:55:32;;;;;;;4.53;3.60;;;;;;;16.55;82.65;100396.86;1661482;85;21102;-64
2022/06/18 02:58:18;;;;;;;4.65;3.55;;;;;;;16.54;82.61;100397.95;1684552;85;21110;-64
2022/06/18 03:00:55;;;;;;;4.78;3.62;;;;;;;16.52;82.48;100395.95;1684440;85;21019;-64
2022/06/18 03:03:30;;;;;;;4.47;3.42;;;;;;;16.52;82.18;100404.25;1712676;83;21043;-65
2022/06/18 03:06:01;;;;;;;5.40;4.03;;;;;;;16.51;81.97;100403.95;1733429;83;21097;-63
2022/06/18 03:08:32;;;;;;;5.12;4.60;;;;;;;16.48;82.05;100404.42;1717261;83;21465;-63
2022/06/18 03:13:55;;;;;;;6.95;4.72;;;;;;;16.46;81.16;100408.81;1684338;85;21340;-63
2022/06/18 03:16:26;;;;;;;7.12;4.83;;;;;;;16.48;81.29;100405.27;1684685;85;21035;-63
2022/06/18 03:18:59;;;;;;;6.30;5.37;;;;;;;16.48;80.86;100411.34;1684234;85;21035;-63
2022/06/18 03:21:45;;;;;;;6.05;5.33;;;;;;;16.47;81.13;100411.03;1684850;85;21051;-63
2022/06/18 03:24:17;;;;;;;8.28;5.97;;;;;;;16.43;81.25;100418.12;1684712;85;21149;-64
2022/06/18 03:26:47;;;;;;;7.15;5.55;;;;;;;16.42;81.35;100410.90;1684799;85;21113;-64
2022/06/18 03:29:18;;;;;;;6.45;5.70;;;;;;;16.44;81.43;100416.50;1659023;85;21047;-64
2022/06/18 03:31:50;;;;;;;8.05;6.40;;;;;;;16.46;81.48;100418.48;1630099;88;21078;-63
2022/06/18 03:34:21;;;;;;;9.18;7.25;;;;;;;16.48;81.50;100416.87;1630131;88;21098;-63
2022/06/18 03:36:51;;;;;;;9.03;7.35;;;;;;;16.48;81.50;100422.41;1630212;88;21082;-63
2022/06/18 03:39:20;;;;;;;8.73;7.80;;;;;;;16.49;81.67;100418.56;1630293;88;21070;-64
2022/06/18 03:41:50;;;;;;;9.73;7.35;;;;;;;16.50;81.61;100421.62;1630218;88;21636;-64
2022/06/18 03:44:20;;;;;;;9.10;6.75;;;;;;;16.52;81.50;100412.55;1630332;88;21062;-64
2022/06/18 03:46:51;;;;;;;8.55;7.17;;;;;;;16.56;81.25;100413.77;1642707;85;21050;-63
2022/06/18 03:49:31;;;;;;;9.43;7.05;;;;;;;16.55;81.12;100415.39;1684345;85;21662;-63
2022/06/18 03:52:03;;;;;;;8.90;7.97;;;;;;;16.53;81.04;100416.16;1684717;85;21466;-63
2022/06/18 03:54:33;;;;;;;9.05;7.90;;;;;;;16.50;80.91;100417.48;1684784;85;21062;-63
2022/06/18 03:57:04;;;;;;;8.60;7.62;;;;;;;16.53;81.00;100414.24;1720964;83;21059;-63
2022/06/18 03:59:35;;;;;;;10.95;7.65;;;;;;;16.55;80.86;100418.99;1733472;83;21078;-62
2022/06/18 04:02:05;;;;;;;10.58;8.90;;;;;;;16.53;80.67;100412.86;1733452;83;20995;-63
2022/06/18 04:04:42;;;;;;;11.10;8.68;;;;;;;16.46;80.85;100419.03;1733390;83;20999;-64
2022/06/18 04:07:18;;;;;;;11.50;8.83;;;;;;;16.47;81.04;100419.33;1733599;83;21019;-64
2022/06/18 04:10:13;;;;;;;11.50;8.80;;;;;;;16.49;80.99;100415.80;1733647;81;21441;-64
2022/06/18 04:12:44;;;;;;;14.40;9.50;;;;;;;16.52;80.71;100411.17;1733618;83;20963;-63
2022/06/18 04:15:22;;;;;;;12.15;9.05;;;;;;;16.54;80.65;100416.47;1732736;82;21015;-64
2022/06/18 04:18:00;;;;;;;13.60;9.50;;;;;;;16.54;80.71;100413.16;1733056;82;21015;-63
2022/06/18 04:20:34;;;;;;;13.78;9.93;;;;;;;16.55;80.89;100414.84;1733368;83;21465;-64
2022/06/18 04:23:05;;;;;;;13.22;8.93;;;;;;;16.55;80.97;100420.92;1733598;83;21046;-64
2022/06/18 04:25:38;;;;;;;14.73;9.55;;;;;;;16.61;81.16;100419.43;1684616;85;21124;-64
2022/06/18 04:28:12;;;;;;;12.45;10.53;;;;;;;16.61;80.88;100427.73;1684782;85;21046;-64
2022/06/18 04:30:43;;;;;;;12.10;10.20;;;;;;;16.64;80.73;100427.26;1684509;85;21063;-63
2022/06/18 04:33:15;;;;;;;10.80;9.15;;;;;;;16.69;80.69;100430.73;1683985;85;21051;-61
2022/06/18 04:35:52;;;;;;;10.68;8.95;;;;;;;16.74;80.67;100431.70;1683799;85;21447;-63
2022/06/18 04:38:23;;;;;;;13.05;9.83;;;;;;;16.80;80.38;100429.37;1684525;85;21140;-63
2022/06/18 04:41:01;;;;;;;16.32;10.30;;;;;;;16.87;80.41;100425.64;1684003;85;21043;-64
2022/06/18 04:43:33;;;;;;;13.38;9.60;;;;;;;16.95;79.99;100422.56;1702233;83;20999;-63
2022/06/18 04:46:02;;;;;;;17.27;9.98;;;;;;;17.04;79.50;100426.66;1733444;82;21046;-64
2022/06/18 04:48:33;;;;;;;13.03;8.83;;;;;;;17.07;78.54;100423.41;1733696;82;20963;-63
2022/06/18 04:51:04;;;;;;;12.28;8.45;;;;;;;17.15;77.84;100427.20;1733642;82;21039;-65
2022/06/18 04:53:35;;;;;;;10.58;9.03;;;;;;;17.22;77.29;100431.24;1733558;83;21050;-64
2022/06/18 04:56:07;;;;;;;12.10;9.48;;;;;;;17.32;77.42;100433.70;1733391;82;21043;-64
2022/06/18 04:58:38;;;;;;;15.25;10.00;;;;;;;17.50;77.09;100433.28;1716338;83;21054;-62
2022/06/18 05:01:10;;;;;;;11.22;9.00;;;;;;;17.73;76.30;100442.46;1733723;83;21007;-64
2022/06/18 05:03:50;;;;;;;11.20;9.18;;;;;;;17.92;75.50;100441.75;1664061;86;21054;-63
2022/06/18 05:06:24;;;;;;;13.15;8.83;;;;;;;18.19;74.71;100442.58;1725950;83;21011;-63
2022/06/18 05:08:59;;;;;;;11.85;8.85;;;;;;;18.47;73.39;100448.70;1732385;82;21050;-64
2022/06/18 05:11:43;;;;;;;13.68;8.80;;;;;;;18.65;71.56;100456.84;1732271;82;21023;-63
2022/06/18 05:14:31;;;;;;;13.45;8.75;;;;;;;18.71;70.59;100467.50;1733303;82;21007;-63
2022/06/18 05:17:06;;;;;;;12.58;8.78;;;;;;;18.73;70.10;100463.92;1733756;83;21042;-61
2022/06/18 05:19:38;;;;;;;10.70;8.53;;;;;;;18.80;70.13;100465.45;1733459;82;21030;-63
2022/06/18 05:22:09;;;;;;;10.93;9.75;;;;;;;18.82;68.66;100463.27;1733397;83;21007;-69
2022/06/18 05:24:40;;;;;;;14.13;10.30;;;;;;;18.84;69.46;100467.17;1733629;83;21023;-63
2022/06/18 05:27:16;;;;;;;11.73;9.18;;;;;;;18.93;69.33;100473.48;1732533;82;21030;-63
2022/06/18 05:29:49;;;;;;;9.95;8.93;;;;;;;18.90;68.83;100466.20;1733598;82;21031;-62
2022/06/18 05:32:19;;;;;;;11.25;8.40;;;;;;;18.92;68.81;100465.41;1736010;82;20986;-63
2022/06/18 05:34:49;;;;;;;11.97;8.15;;;;;;;18.93;68.23;100476.81;1736794;82;21023;-62
2022/06/18 05:37:22;;;;;;;10.40;7.42;;;;;;;18.92;67.78;100477.91;1736822;82;21051;-63
2022/06/18 05:39:53;;;;;;;11.80;7.72;;;;;;;18.89;67.65;100481.19;1737027;82;21443;-63
2022/06/18 05:42:24;;;;;;;11.80;8.70;;;;;;;18.80;68.31;100479.33;1736779;82;21455;-64
2022/06/18 05:44:55;;;;;;;10.82;9.00;;;;;;;18.81;68.51;100478.78;1736524;82;21007;-63
2022/06/18 05:47:28;;;;;;;13.48;9.63;;;;;;;18.78;68.38;100475.12;1736952;82;21030;-62
2022/06/18 05:49:59;;;;;;;13.95;9.50;;;;;;;18.66;68.72;100474.64;1736775;82;21445;-62
2022/06/18 05:52:32;;;;;;;12.10;9.10;;;;;;;18.62;69.30;100476.22;1737016;82;20991;-63
2022/06/18 05:55:04;;;;;;;12.85;8.93;;;;;;;18.72;69.67;100474.73;1735591;82;21062;-64
2022/06/18 05:57:50;;;;;;;12.07;8.90;;;;;;;18.84;69.28;100475.51;1736187;82;21067;-63
2022/06/18 06:00:32;;;;;;;12.78;8.80;;;;;;;18.89;68.89;100478.41;1736719;82;21478;-63
2022/06/18 06:03:03;;;;;;;10.25;8.98;;;;;;;19.00;69.08;100482.50;1737047;82;21050;-62
2022/06/18 06:05:33;;;;;;;13.55;9.23;;;;;;;19.20;68.15;100477.83;1736713;82;21022;-64
2022/06/18 06:08:04;;;;;;;11.48;8.35;;;;;;;19.33;67.90;100481.66;1736931;82;21038;-63
2022/06/18 06:13:26;;;;;;;13.72;8.50;;;;;;;19.56;66.91;100475.67;1718228;82;21435;-63
2022/06/18 06:15:57;;;;;;;13.70;8.85;;;;;;;19.63;66.20;100472.17;1736863;82;21466;-64
2022/06/18 06:18:30;;;;;;;9.60;7.92;;;;;;;19.76;66.08;100483.47;1736813;82;21046;-62
2022/06/18 06:21:01;;;;;;;12.23;7.80;;;;;;;19.95;65.49;100477.90;1736982;82;21435;-64
2022/06/18 06:23:31;;;;;;;12.58;7.85;;;;;;;20.14;65.10;100486.22;1736791;82;21022;-62
2022/06/18 06:26:01;;;;;;;10.18;7.95;;;;;;;20.34;64.10;100476.47;1736801;82;20998;-64
2022/06/18 06:28:32;;;;;;;9.88;7.40;;;;;;;20.49;63.49;100479.45;1714337;82;21022;-63
2022/06/18 06:31:02;;;;;;;9.68;7.33;;;;;;;20.68;62.98;100484.95;1714408;82;21058;-64
2022/06/18 06:33:32;;;;;;;7.97;6.60;;;;;;;20.91;63.16;100489.39;1736728;82;21463;-64
2022/06/18 06:36:05;;;;;;;6.67;5.45;;;;;;;21.19;61.15;100486.30;1736777;82;21511;-64
2022/06/18 06:38:37;;;;;;;7.03;5.47;;;;;;;21.48;60.44;100484.64;1714004;82;21446;-63
2022/06/18 06:41:10;;;;;;;7.10;6.00;;;;;;;21.75;58.88;100479.80;1737125;82;21708;-64
2022/06/18 06:43:41;;;;;;;9.35;6.12;;;;;;;21.95;57.82;100480.47;1736791;82;21006;-63
2022/06/18 06:46:12;;;;;;;6.75;5.90;;;;;;;21.92;57.01;100481.57;1736686;82;21074;-63
2022/06/18 06:48:42;;;;;;;6.67;5.92;;;;;;;21.81;56.97;100484.86;1736935;82;21403;-63
2022/06/18 06:51:20;;;;;;;7.97;6.30;;;;;;;21.65;57.57;100490.05;1736890;82;21047;-63
2022/06/18 06:53:51;;;;;;;7.03;5.90;;;;;;;21.53;57.60;100483.28;1737134;82;21446;-64
2022/06/18 06:59:11;;;;;;;5.85;5.10;;;;;;;21.12;58.26;100481.51;1737098;82;21026;-63
2022/06/18 07:01:42;;;;;;;7.00;5.28;;;;;;;20.99;58.84;100490.31;1736960;82;21405;-64
2022/06/18 07:04:11;;;;;;;10.30;6.15;;;;;;;20.95;58.95;100489.70;1736799;82;21014;-63
2022/06/18 07:06:43;;;;;;;7.35;5.25;;;;;;;20.92;59.52;100495.26;1736815;82;21027;-63
2022/06/18 07:09:13;;;;;;;10.58;6.22;;;;;;;20.94;59.67;100491.66;1736965;82;21438;-63
2022/06/18 07:11:44;;;;;;;6.20;5.42;;;;;;;20.92;59.42;100489.69;1737048;82;21050;-63
2022/06/18 07:14:16;;;;;;;12.82;8.75;;;;;;;20.85;59.08;100486.27;1736688;82;21018;-64
2022/06/18 07:16:51;;;;;;;9.88;6.87;;;;;;;20.83;60.04;100492.11;1736950;82;20998;-63
2022/06/18 07:19:20;;;;;;;10.25;7.45;;;;;;;20.85;60.89;100493.23;1736780;82;21022;-62
2022/06/18 07:21:50;;;;;;;12.68;7.40;;;;;;;20.86;60.95;100490.73;1736847;82;21435;-64
2022/06/18 07:24:21;;;;;;;8.23;6.30;;;;;;;20.88;61.21;100496.89;1736728;82;20998;-62
2022/06/18 07:26:50;;;;;;;13.78;6.53;;;;;;;20.94;61.20;100501.95;1737221;82;20999;-62
2022/06/18 07:29:21;;;;;;;10.08;7.05;;;;;;;20.99;60.99;100495.88;1737187;82;20967;-62
2022/06/18 07:31:53;;;;;;;12.78;7.37;;;;;;;20.99;60.99;100504.79;1735532;82;21014;-64
2022/06/18 07:34:23;;;;;;;9.83;7.55;;;;;;;21.01;61.08;100505.37;1733418;83;20991;-61
2022/06/18 07:36:54;;;;;;;12.13;7.90;;;;;;;20.99;60.94;100503.39;1733498;82;20967;-63
2022/06/18 07:39:24;;;;;;;7.97;6.50;;;;;;;20.96;60.82;100508.94;1733483;83;20983;-63
2022/06/18 07:41:54;;;;;;;8.25;6.25;;;;;;;20.98;60.23;100503.95;1733443;83;21461;-64
2022/06/18 07:44:23;;;;;;;7.03;6.22;;;;;;;21.08;59.73;100497.08;1733387;82;21003;-63
2022/06/18 07:47:04;;;;;;;6.75;5.37;;;;;;;21.23;58.78;100503.38;1733466;82;21082;-63
2022/06/18 07:49:32;;;;;;;7.85;5.85;;;;;;;21.32;57.74;100511.53;1737278;81;21040;-66
2022/06/18 07:52:02;;;;;;;9.65;5.60;;;;;;;21.46;57.56;100510.00;1761622;80;21451;-65
2022/06/18 07:54:31;;;;;;;9.48;5.47;;;;;;;21.79;57.69;100512.19;1790593;80;21417;-65
2022/06/18 07:57:03;;;;;;;7.78;5.95;;;;;;;22.25;56.10;100504.96;1742839;81;21000;-63
2022/06/18 07:59:33;;;;;;;8.65;5.60;;;;;;;22.66;55.03;100504.55;1753987;81;21022;-62
2022/06/18 08:02:02;;;;;;;8.68;5.40;;;;;;;22.97;54.39;100503.27;1758615;81;20980;-64
2022/06/18 08:04:32;;;;;;;6.50;4.70;;;;;;;23.33;52.56;100504.97;1746686;81;21019;-63
2022/06/18 08:07:03;;;;;;;9.53;4.87;;;;;;;23.72;51.67;100501.64;1745808;81;20967;-70
2022/06/18 08:09:33;;;;;;;5.75;4.30;;;;;;;24.04;49.73;100497.08;1763361;81;21071;-63
2022/06/18 08:12:07;;;;;;;6.97;4.45;;;;;;;24.28;49.15;100495.38;1712893;84;21082;-61
2022/06/18 08:14:38;;;;;;;6.10;4.40;;;;;;;24.50;48.15;100503.40;1712048;84;21091;-64
2022/06/18 08:17:08;;;;;;;6.95;4.50;;;;;;;24.76;47.29;100492.92;1713270;84;21456;-64
2022/06/18 08:19:40;;;;;;;9.43;4.78;;;;;;;24.90;46.66;100500.95;1712888;84;21070;-63
2022/06/18 08:22:10;;;;;;;5.58;4.50;;;;;;;25.01;46.85;100500.35;1712683;84;21483;-62
2022/06/18 08:24:39;;;;;;;5.03;4.35;;;;;;;25.10;46.14;100504.77;1672212;85;21007;-64
2022/06/18 08:27:08;;;;;;;5.72;3.90;;;;;;;25.20;46.41;100503.30;1683648;85;21062;-64
2022/06/18 08:29:37;;;;;;;11.10;3.90;;;;;;;25.43;45.98;100498.36;1675527;81;21438;-64
2022/06/18 08:32:08;;;;;;;5.70;3.75;;;;;;;25.67;44.40;100497.61;1758659;81;21078;-64
2022/06/18 08:34:38;;;;;;;4.90;3.65;;;;;;;25.83;43.71;100499.13;1722772;82;21105;-67
2022/06/18 08:37:08;;;;;;;6.58;3.85;;;;;;;25.75;43.55;100496.97;1749683;82;21129;-64
2022/06/18 08:39:38;;;;;;;5.95;3.65;;;;;;;25.56;43.79;100500.48;1749217;82;21556;-66
2022/06/18 08:42:41;;;;;;;4.80;3.52;;;;;;;25.43;44.33;100501.73;1750169;82;21070;-66
2022/06/18 08:45:35;;;;;;;5.42;3.47;;;;;;;25.36;43.41;100492.25;1750761;82;21058;-64
2022/06/18 08:48:16;;;;;;;5.33;3.80;;;;;;;25.37;43.14;100483.27;1750825;82;21644;-64
2022/06/18 08:50:56;;;;;;;7.55;3.87;;;;;;;25.37;44.24;100486.91;1750910;82;21244;-66
2022/06/18 08:54:00;;;;;;;4.15;2.40;;;;;;;25.37;44.23;100494.48;1750718;82;21071;-64
2022/06/18 08:56:41;;;;;;;4.30;2.30;;;;;;;25.14;42.75;100493.25;1750899;82;21117;-60
2022/06/18 08:59:33;;;;;;;5.00;2.60;;;;;;;25.09;42.24;100494.13;1750666;82;21077;-61
2022/06/18 09:02:14;;;;;;;4.92;2.70;;;;;;;25.25;42.20;100503.25;1750728;82;21030;-61
2022/06/18 09:05:00;;;;;;;3.80;2.70;;;;;;;25.50;41.27;100488.20;1750701;82;21069;-61
2022/06/18 09:07:57;;;;;;;4.53;2.08;;;;;;;25.71;40.96;100494.48;1688802;85;21038;-62
2022/06/18 09:11:12;;;;;;;3.33;2.17;;;;;;;25.90;38.85;100498.20;1688636;85;21536;-62
2022/06/18 09:13:54;;;;;;;4.83;2.72;;;;;;;25.90;39.26;100500.45;1687943;85;21050;-62
2022/06/18 09:16:24;;;;;;;2.27;1.90;;;;;;;25.97;39.28;100502.91;1666164;85;21596;-61
2022/06/18 09:18:54;;;;;;;3.85;2.12;;;;;;;26.03;38.35;100500.91;1688374;85;21121;-62
2022/06/18 09:21:39;;;;;;;3.05;1.75;;;;;;;26.02;37.62;100507.09;1688859;85;21030;-61
2022/06/18 09:24:12;;;;;;;2.02;1.77;;;;;;;25.77;37.16;100513.78;1688910;85;21022;-62
2022/06/18 09:26:45;;;;;;;2.87;1.55;;;;;;;25.50;37.66;100511.48;1688923;85;21454;-62
2022/06/18 09:29:27;;;;;;;2.98;1.80;;;;;;;25.31;38.09;100511.90;1688723;85;21046;-62
2022/06/18 09:32:03;;;;;;;2.75;2.22;;;;;;;25.16;38.68;100516.23;1714461;81;21109;-60
2022/06/18 09:34:51;;;;;;;5.53;2.40;;;;;;;24.95;39.27;100509.33;1763877;81;20992;-61
2022/06/18 09:37:28;;;;;;;6.25;2.75;;;;;;;24.69;43.82;100511.15;1763695;81;21016;-61
2022/06/18 09:39:58;;;;;;;4.75;2.40;;;;;;;24.36;42.66;100515.52;1761187;81;21023;-61
2022/06/18 09:42:47;;;;;;;3.00;2.30;;;;;;;24.12;43.26;100507.73;1763305;81;20987;-61
2022/06/18 09:45:23;;;;;;;3.20;2.42;;;;;;;23.91;42.94;100511.12;1763110;81;22003;-61
2022/06/18 09:47:52;;;;;;;7.58;2.92;;;;;;;23.70;43.45;100496.89;1763400;81;21377;-59
2022/06/18 09:50:26;;;;;;;4.10;2.60;;;;;;;23.54;44.00;100504.43;1763322;81;21108;-61
2022/06/18 09:53:05;;;;;;;4.97;2.75;;;;;;;23.45;43.83;100501.92;1763573;81;21052;-60
2022/06/18 09:55:45;;;;;;;3.92;2.40;;;;;;;23.44;44.40;100498.84;1763642;81;20988;-59
2022/06/18 09:58:24;;;;;;;2.90;2.22;;;;;;;23.42;42.37;100494.09;1763049;81;21510;-62
2022/06/18 10:00:54;;;;;;;2.58;1.70;;;;;;;23.38;42.08;100487.35;1732484;83;21026;-62
2022/06/18 10:09:07;;;;;;;3.40;1.92;;;;;;;23.45;40.88;100493.53;1679247;85;21015;-62
2022/06/18 10:11:37;;;;;;;2.33;1.90;;;;;;;23.51;41.62;100496.60;1682876;85;21047;-61
2022/06/18 10:14:15;;;;;;;5.60;2.12;;;;;;;23.46;42.04;100495.20;1682840;85;21106;-60
2022/06/18 10:17:11;;;;;;;4.75;2.77;;;;;;;23.44;42.82;100495.21;1683161;85;21458;-60
2022/06/18 10:20:24;;;;;;;3.17;2.52;;;;;;;23.46;44.26;100495.20;1682837;85;21011;-61
2022/06/18 10:23:21;;;;;;;4.42;2.77;;;;;;;23.43;45.84;100498.56;1682835;85;21521;-60
2022/06/18 10:26:14;;;;;;;3.70;2.70;;;;;;;23.48;46.21;100496.33;1733321;82;21496;-59
2022/06/18 10:29:13;;;;;;;5.90;2.62;;;;;;;23.54;46.58;100489.61;1733297;83;21509;-62
2022/06/18 10:31:59;;;;;;;4.50;2.70;;;;;;;23.48;45.25;100491.57;1720599;83;21032;-58
2022/06/18 10:34:45;;;;;;;2.60;2.40;;;;;;;23.44;46.07;100489.06;1740932;82;21055;-61
2022/06/18 10:37:39;;;;;;;2.80;2.50;;;;;;;23.46;46.12;100488.22;1733513;83;21082;-58
2022/06/18 10:40:18;;;;;;;3.85;2.40;;;;;;;23.52;46.25;100491.84;1734109;82;20986;-60
2022/06/18 10:43:12;;;;;;;2.85;2.25;;;;;;;23.56;46.03;100484.04;1733377;83;21022;-60
2022/06/18 10:46:06;;;;;;;5.45;2.40;;;;;;;23.55;45.65;100488.52;1733229;83;21674;-59
2022/06/18 10:48:34;;;;;;;5.15;2.37;;;;;;;23.57;46.24;100481.52;1733300;83;21034;-60
2022/06/18 10:51:05;;;;;;;3.35;2.17;;;;;;;23.61;46.08;100490.19;1733136;83;21058;-59
2022/06/18 10:53:56;;;;;;;2.77;1.90;;;;;;;23.60;45.73;100489.35;1692258;83;20991;-59
2022/06/18 10:56:28;;;;;;;2.27;2.05;;;;;;;23.61;45.38;100485.99;1733136;83;20999;-59
2022/06/18 10:59:00;;;;;;;5.05;2.25;;;;;;;23.63;44.46;100490.75;1739267;81;20995;-56
2022/06/18 11:01:34;;;;;;;5.85;2.27;;;;;;;23.66;43.97;100485.42;1763579;81;21052;-58
2022/06/18 11:04:08;;;;;;;2.67;2.00;;;;;;;23.71;43.84;100488.77;1763612;81;21055;-59
2022/06/18 11:06:39;;;;;;;4.75;2.00;;;;;;;23.78;44.31;100488.48;1754101;81;21053;-60
2022/06/18 11:09:09;;;;;;;4.37;2.10;;;;;;;23.84;44.08;100491.55;1746933;81;20996;-59
2022/06/18 11:11:39;;;;;;;3.80;1.85;;;;;;;23.89;43.88;100479.77;1746932;81;21000;-60
2022/06/18 11:14:17;;;;;;;2.90;2.50;;;;;;;23.99;43.65;100484.50;1763346;81;21097;-58
2022/06/18 11:16:54;;;;;;;3.50;2.20;;;;;;;24.02;43.91;100476.94;1763638;81;20956;-58
2022/06/18 11:19:34;;;;;;;2.58;2.08;;;;;;;24.10;43.97;100481.14;1763574;81;21008;-58
2022/06/18 11:22:27;;;;;;;3.15;2.20;;;;;;;24.14;44.37;100494.28;1763310;81;21106;-58
2022/06/18 11:25:01;;;;;;;4.90;2.20;;;;;;;24.17;43.87;100488.11;1763506;81;21061;-58
2022/06/18 11:27:34;;;;;;;4.67;2.22;;;;;;;24.11;43.91;100489.25;1746476;81;21016;-62
2022/06/18 11:30:11;;;;;;;3.35;2.30;;;;;;;24.12;44.29;100482.53;1763480;81;21016;-60
2022/06/18 11:32:47;;;;;;;2.25;2.05;;;;;;;24.22;44.09;100490.89;1746472;81;21604;-60
2022/06/18 11:35:30;;;;;;;2.57;2.00;;;;;;;24.29;43.79;100485.85;1766565;81;21039;-60
2022/06/18 11:38:08;;;;;;;4.60;2.15;;;;;;;24.37;43.83;100490.58;1766647;81;21042;-59
2022/06/18 11:40:40;;;;;;;2.42;1.87;;;;;;;24.41;42.91;100493.08;1765191;81;21106;-60
2022/06/18 11:43:20;;;;;;;6.37;2.50;;;;;;;24.38;42.87;100488.89;1715945;81;21035;-60
2022/06/18 11:45:59;;;;;;;2.75;1.92;;;;;;;24.37;42.48;100496.19;1766534;81;20972;-58
2022/06/18 11:48:52;;;;;;;2.80;1.85;;;;;;;24.33;42.43;100492.55;1766506;81;20999;-61
2022/06/18 11:51:58;;;;;;;4.72;2.10;;;;;;;24.26;42.73;100492.00;1766444;81;21593;-60
2022/06/18 11:54:43;;;;;;;2.98;2.00;;;;;;;24.17;43.09;100490.91;1766364;81;20996;-60
2022/06/18 11:57:22;;;;;;;2.87;2.08;;;;;;;24.08;43.62;100494.02;1766668;81;21011;-60
2022/06/18 12:00:02;;;;;;;2.95;2.15;;;;;;;24.03;43.48;100499.61;1749136;81;21303;-62
2022/06/18 12:02:58;;;;;;;2.40;2.10;;;;;;;23.96;43.47;100485.08;1735930;83;21136;-59
2022/06/18 12:05:38;;;;;;;3.67;2.20;;;;;;;23.87;43.90;100495.17;1735950;83;21038;-63
2022/06/18 12:08:08;;;;;;;2.92;2.37;;;;;;;23.82;44.74;100486.79;1735942;83;21055;-62
2022/06/18 12:10:51;;;;;;;2.55;1.92;;;;;;;23.80;45.79;100487.64;1735761;83;21030;-59
2022/06/18 12:13:44;;;;;;;3.90;2.22;;;;;;;23.69;45.04;100489.05;1735949;83;21454;-62
2022/06/18 12:16:36;;;;;;;2.27;2.00;;;;;;;23.59;44.68;100477.88;1736143;83;21066;-60
2022/06/18 12:19:25;;;;;;;2.67;1.60;;;;;;;23.51;44.68;100483.18;1736335;83;21082;-61
2022/06/18 12:22:36;;;;;;;3.95;1.90;;;;;;;23.46;44.26;100478.43;1735972;83;21086;-60